Time;durP1;ratioP1;P1;durP2;ratioP2;P2;SDS_P1;SDS_P2;PMS_P1;PMS_P2;Temp;Humidity;BMP_temperature;BMP_pressure;BME280_temperature;BME280_humidity;BME280_pressure;Samples;Min_cycle;Max_cycle;Signal;HPM_P1;HPM_P2
2023/12/06 00:00:08;;;;;;;;;19.00;14.67;;;;;12.40;96.77;100650.91;4831739;29;45558;-85
2023/12/06 00:02:34;;;;;;;;;13.00;13.00;;;;;12.39;96.61;100655.34;4831885;29;45499;-85
2023/12/06 00:05:00;;;;;;;;;13.33;13.33;;;;;12.38;96.25;100647.34;4830851;29;45463;-85
2023/12/06 00:07:25;;;;;;;;;19.00;16.33;;;;;12.31;94.86;100648.22;4830641;29;47014;-85
2023/12/06 00:09:51;;;;;;;;;19.00;15.33;;;;;12.29;95.54;100656.19;4831211;29;46005;-85
2023/12/06 00:12:16;;;;;;;;;15.67;15.67;;;;;12.29;97.47;100644.66;4846898;29;45783;-84
2023/12/06 00:14:42;;;;;;;;;17.00;16.33;;;;;12.29;97.07;100652.63;4863760;29;45368;-84
2023/12/06 00:17:07;;;;;;;;;21.33;19.00;;;;;12.30;96.49;100659.75;4831110;29;47539;-85
2023/12/06 00:19:32;;;;;;;;;18.33;18.00;;;;;12.32;96.44;100660.66;4846754;29;45890;-84
2023/12/06 00:22:04;;;;;;;;;14.67;14.67;;;;;12.26;97.53;100650.84;4847335;29;45426;-84
2023/12/06 00:24:29;;;;;;;;;16.33;16.33;;;;;12.32;98.36;100660.66;4865882;29;45527;-84
2023/12/06 00:26:55;;;;;;;;;14.33;12.33;;;;;12.57;96.96;100659.91;4848077;29;48195;-84
2023/12/06 00:29:21;;;;;;;;;19.33;15.33;;;;;12.39;98.65;100663.34;4864881;29;45321;-84
2023/12/06 00:31:46;;;;;;;;;20.67;17.67;;;;;12.41;98.00;100671.38;4847522;29;45269;-85
2023/12/06 00:34:11;;;;;;;;;18.00;15.67;;;;;12.44;96.83;100670.50;4847744;29;45412;-85
2023/12/06 00:36:37;;;;;;;;;14.67;14.00;;;;;12.45;97.56;100666.97;4848402;29;48461;-85
2023/12/06 00:39:03;;;;;;;;;14.00;14.00;;;;;12.38;97.17;100676.69;4848407;29;45410;-84
2023/12/06 00:41:28;;;;;;;;;20.67;15.67;;;;;12.35;97.93;100672.22;4865159;29;45401;-84
2023/12/06 00:43:53;;;;;;;;;15.33;15.33;;;;;12.39;98.17;100668.69;4865033;29;45317;-84
2023/12/06 00:46:19;;;;;;;;;16.33;14.67;;;;;12.47;98.54;100676.75;4848121;29;47295;-85
2023/12/06 00:48:44;;;;;;;;;17.33;13.67;;;;;12.47;97.72;100666.06;4847880;29;45411;-84
2023/12/06 00:51:10;;;;;;;;;15.00;15.00;;;;;12.52;98.42;100674.09;4846474;29;45270;-85
2023/12/06 00:53:35;;;;;;;;;14.00;14.00;;;;;12.49;98.71;100672.31;4848631;29;45464;-85
2023/12/06 00:56:00;;;;;;;;;16.33;16.33;;;;;12.54;97.95;100677.66;4847390;29;48020;-85
2023/12/06 00:58:26;;;;;;;;;18.00;16.67;;;;;12.50;97.99;100684.78;4864237;29;45483;-85
2023/12/06 01:00:51;;;;;;;;;14.00;12.33;;;;;12.47;96.34;100686.53;4847521;29;45459;-85
2023/12/06 01:03:17;;;;;;;;;14.33;13.00;;;;;12.47;96.44;100698.09;4864270;29;45432;-85
2023/12/06 01:05:42;;;;;;;;;13.00;13.00;;;;;12.41;96.97;100698.94;4866198;29;45509;-85
2023/12/06 01:08:09;;;;;;;;;14.67;11.67;;;;;12.59;95.90;100681.25;4867686;29;45372;-85
2023/12/06 01:10:41;;;;;;;;;12.00;10.33;;;;;12.32;96.40;100688.22;4867507;29;44794;-86
2023/12/06 01:13:06;;;;;;;;;11.00;11.00;;;;;12.34;96.04;100704.22;4868459;29;45469;-85
2023/12/06 01:15:32;;;;;;;;;11.00;11.00;;;;;12.39;96.77;100703.38;4867453;29;46578;-86
2023/12/06 01:17:57;;;;;;;;;8.33;8.33;;;;;12.37;95.54;100705.13;4849909;29;45501;-85
2023/12/06 01:20:22;;;;;;;;;12.00;9.67;;;;;12.29;94.98;100701.53;4849630;29;45900;-85
2023/12/06 01:22:48;;;;;;;;;14.00;12.00;;;;;12.24;96.19;100705.03;4836003;29;45797;-85
2023/12/06 01:25:13;;;;;;;;;13.00;9.00;;;;;12.19;96.86;100705.00;4865066;29;45563;-85
2023/12/06 01:28:20;;;;;;;;;9.00;9.00;;;;;12.58;95.75;100712.38;4850744;29;46398;-85
2023/12/06 01:30:46;;;;;;;;;12.67;11.67;;;;;12.15;97.09;100706.75;4849914;29;45598;-84
2023/12/06 01:33:11;;;;;;;;;8.00;8.00;;;;;12.15;95.10;100717.44;4849280;29;45346;-84
2023/12/06 01:35:37;;;;;;;;;10.33;10.33;;;;;12.05;96.29;100714.69;4865664;29;45540;-85
2023/12/06 01:38:10;;;;;;;;;17.33;13.67;;;;;12.31;96.35;100717.53;4849846;29;46085;-85
2023/12/06 01:40:36;;;;;;;;;13.00;12.00;;;;;11.97;93.12;100719.97;4851858;29;45850;-85
2023/12/06 01:43:02;;;;;;;;;14.00;12.33;;;;;11.79;92.15;100726.00;4852114;29;45373;-85
2023/12/06 01:45:28;;;;;;;;;12.00;12.00;;;;;11.69;95.32;100735.66;4851835;29;46721;-85
2023/12/06 01:47:54;;;;;;;;;13.33;13.33;;;;;11.72;95.48;100733.03;4850754;29;45986;-85
2023/12/06 01:50:20;;;;;;;;;14.00;13.00;;;;;11.66;95.65;100734.75;4851372;29;45761;-85
2023/12/06 01:52:46;;;;;;;;;13.00;13.00;;;;;11.67;96.65;100740.09;4869182;29;45379;-85
2023/12/06 01:55:13;;;;;;;;;14.33;13.33;;;;;11.70;94.90;100734.81;4852021;29;47144;-85
2023/12/06 01:57:39;;;;;;;;;18.33;18.00;;;;;11.65;96.41;100747.16;4868182;29;45522;-85
2023/12/06 02:00:07;;;;;;;;;16.33;13.00;;;;;11.74;97.70;100749.03;4851370;29;45438;-86
2023/12/06 02:02:34;;;;;;;;;13.00;13.00;;;;;11.96;97.56;100758.16;4870427;29;44874;-83
2023/12/06 02:05:00;;;;;;;;;17.67;14.67;;;;;11.90;98.01;100755.44;4870649;29;47387;-82
2023/12/06 02:07:28;;;;;;;;;15.33;15.33;;;;;12.02;97.39;100763.56;4870797;29;45047;-82
2023/12/06 02:09:54;;;;;;;;;18.00;18.00;;;;;11.82;95.92;100761.56;4870328;29;44855;-81
2023/12/06 02:12:20;;;;;;;;;18.00;17.00;;;;;11.81;96.77;100764.19;4888057;29;44899;-81
2023/12/06 02:14:45;;;;;;;;;15.67;13.67;;;;;11.84;95.30;100766.91;4871155;29;47182;-81
2023/12/06 02:17:12;;;;;;;;;17.00;16.67;;;;;11.75;94.45;100770.34;4871198;29;45262;-82
2023/12/06 02:19:39;;;;;;;;;18.00;17.67;;;;;11.66;93.82;100770.28;4886743;29;44811;-82
2023/12/06 02:22:06;;;;;;;;;18.00;15.33;;;;;11.76;96.11;100773.94;4871601;29;44782;-81
2023/12/06 02:24:34;;;;;;;;;18.00;16.67;;;;;11.75;96.71;100759.69;4887444;29;45372;-83
2023/12/06 02:26:59;;;;;;;;;19.00;16.67;;;;;11.69;95.15;100769.41;4886476;29;44833;-81
2023/12/06 02:29:25;;;;;;;;;19.67;18.00;;;;;11.68;94.17;100778.28;4870401;29;44775;-81
2023/12/06 02:31:50;;;;;;;;;23.00;21.67;;;;;11.66;95.50;100778.28;4887083;29;44878;-82
2023/12/06 02:34:22;;;;;;;;;22.67;19.33;;;;;11.80;97.04;100773.97;4869948;29;47174;-82
2023/12/06 02:36:50;;;;;;;;;18.67;18.00;;;;;11.84;96.24;100774.00;4887481;29;45407;-83
2023/12/06 02:39:17;;;;;;;;;20.67;18.00;;;;;11.72;95.49;100783.66;4887052;29;44829;-82
2023/12/06 02:41:49;;;;;;;;;18.67;18.67;;;;;11.66;95.96;100791.59;4869905;29;45162;-81
2023/12/06 02:44:14;;;;;;;;;20.33;16.67;;;;;11.66;95.70;100786.25;4885993;29;45451;-81
2023/12/06 02:46:40;;;;;;;;;8.00;8.00;;;;;11.66;96.98;100782.72;4885860;29;44952;-81
2023/12/06 02:49:05;;;;;;;;;19.67;16.00;;;;;11.66;96.24;100785.38;4869712;29;44759;-81
2023/12/06 02:51:30;;;;;;;;;17.00;16.00;;;;;11.69;97.30;100793.38;4885541;29;44824;-81
2023/12/06 02:53:55;;;;;;;;;17.67;16.33;;;;;11.73;97.49;100801.41;4886007;29;44912;-80
2023/12/06 02:56:21;;;;;;;;;17.00;17.00;;;;;11.73;96.12;100798.75;4885856;29;45140;-81
2023/12/06 02:58:46;;;;;;;;;22.67;18.67;;;;;11.70;97.04;100797.84;4870555;29;45393;-82
2023/12/06 03:01:12;;;;;;;;;18.00;16.67;;;;;11.70;97.58;100785.41;4886139;29;44857;-82
2023/12/06 03:03:37;;;;;;;;;23.00;21.00;;;;;11.77;97.59;100791.69;4868561;29;47036;-80
2023/12/06 03:06:03;;;;;;;;;17.33;14.00;;;;;11.83;97.89;100797.06;4885784;29;44749;-81
2023/12/06 03:08:28;;;;;;;;;24.33;22.00;;;;;11.93;96.79;100800.75;4869720;29;45175;-80
2023/12/06 03:10:54;;;;;;;;;17.00;17.00;;;;;11.94;97.46;100803.44;4885472;29;45274;-81
2023/12/06 03:13:19;;;;;;;;;20.67;19.00;;;;;11.98;96.11;100799.94;4885448;29;45438;-81
2023/12/06 03:15:46;;;;;;;;;16.67;16.00;;;;;12.11;95.61;100803.59;4868719;29;44730;-82
2023/12/06 03:18:11;;;;;;;;;20.67;19.00;;;;;11.78;94.92;100790.84;4868999;29;44857;-81
2023/12/06 03:20:36;;;;;;;;;12.67;11.33;;;;;11.68;92.34;100792.50;4868237;29;45220;-80
2023/12/06 03:23:02;;;;;;;;;16.67;13.67;;;;;11.65;95.04;100792.47;4869092;29;47070;-80
2023/12/06 03:25:27;;;;;;;;;18.67;15.67;;;;;11.66;95.01;100791.59;4885333;29;44961;-81
2023/12/06 03:27:53;;;;;;;;;23.67;22.67;;;;;11.74;96.56;100783.69;4868684;29;45508;-81
2023/12/06 03:30:19;;;;;;;;;16.67;14.67;;;;;11.66;96.65;100772.94;4869178;29;44857;-81
2023/12/06 03:32:44;;;;;;;;;16.00;13.33;;;;;11.73;95.96;100776.56;4885929;29;45473;-82
2023/12/06 03:35:09;;;;;;;;;22.67;20.00;;;;;11.68;95.05;100780.97;4885019;29;44903;-80
2023/12/06 03:37:35;;;;;;;;;16.33;16.00;;;;;11.61;93.89;100777.31;4869055;29;44885;-81
2023/12/06 03:40:00;;;;;;;;;23.67;18.33;;;;;11.57;93.84;100778.16;4885278;29;44894;-81
2023/12/06 03:42:25;;;;;;;;;22.00;19.67;;;;;11.47;93.29;100773.63;4885824;29;45637;-82
2023/12/06 03:44:51;;;;;;;;;16.67;14.67;;;;;11.35;93.62;100767.28;4886028;29;44729;-80
2023/12/06 03:47:19;;;;;;;;;18.00;16.00;;;;;11.39;95.89;100768.19;4885951;29;44776;-81
2023/12/06 03:49:44;;;;;;;;;16.00;13.00;;;;;11.46;96.90;100769.19;4868911;29;44822;-81
2023/12/06 03:52:10;;;;;;;;;16.00;16.00;;;;;11.57;96.15;100779.09;4885194;29;45533;-81
2023/12/06 03:54:35;;;;;;;;;18.00;16.67;;;;;11.55;93.51;100771.94;4885625;29;44966;-81
2023/12/06 03:57:01;;;;;;;;;19.00;17.00;;;;;11.57;96.30;100759.53;4867680;29;45012;-80
2023/12/06 03:59:26;;;;;;;;;8.33;8.33;;;;;11.58;94.04;100762.22;4868944;29;44834;-80
2023/12/06 04:01:51;;;;;;;;;16.00;16.00;;;;;11.58;94.27;100766.66;4884970;29;45210;-80
2023/12/06 04:04:17;;;;;;;;;16.00;16.00;;;;;11.54;93.83;100780.81;4884642;29;44935;-84
2023/12/06 04:06:42;;;;;;;;;17.67;16.33;;;;;11.44;92.51;100779.81;4869018;29;44971;-83
2023/12/06 04:09:10;;;;;;;;;17.33;17.00;;;;;11.39;94.25;100777.09;4868058;29;45152;-81
2023/12/06 04:11:36;;;;;;;;;16.00;16.00;;;;;11.39;95.16;100782.44;4884800;29;45300;-82
2023/12/06 04:14:02;;;;;;;;;18.00;15.00;;;;;11.30;95.92;100763.69;4867866;29;44936;-80
2023/12/06 04:16:29;;;;;;;;;19.67;17.00;;;;;11.44;96.36;100782.47;4885193;29;44728;-81
2023/12/06 04:18:54;;;;;;;;;15.33;15.33;;;;;11.41;95.87;100782.44;4884449;29;44879;-82
2023/12/06 04:21:20;;;;;;;;;15.67;12.67;;;;;11.30;92.01;100766.34;4868080;29;47259;-81
2023/12/06 04:23:45;;;;;;;;;18.67;18.67;;;;;11.28;95.70;100775.19;4884556;29;44844;-81
2023/12/06 04:26:11;;;;;;;;;14.33;14.33;;;;;11.46;94.44;100782.50;4867505;29;45221;-81
2023/12/06 04:28:36;;;;;;;;;18.33;16.33;;;;;11.49;94.44;100785.19;4884972;29;44798;-80
2023/12/06 04:31:01;;;;;;;;;16.67;16.00;;;;;11.49;93.15;100782.50;4868140;29;47376;-81
2023/12/06 04:33:27;;;;;;;;;19.33;17.00;;;;;11.38;93.48;100783.28;4885101;29;44950;-82
2023/12/06 04:35:52;;;;;;;;;18.00;16.00;;;;;11.39;95.77;100782.44;4884899;29;44937;-81
2023/12/06 04:38:18;;;;;;;;;13.67;12.67;;;;;11.55;95.09;100790.56;4884904;29;44880;-82
2023/12/06 04:40:43;;;;;;;;;22.00;19.67;;;;;11.58;95.84;100788.84;4867577;29;47037;-81
2023/12/06 04:43:08;;;;;;;;;19.67;17.67;;;;;11.57;94.74;100791.47;4884214;29;44819;-82
2023/12/06 04:45:34;;;;;;;;;14.67;13.67;;;;;11.54;93.88;100786.13;4884974;29;44932;-81
2023/12/06 04:47:59;;;;;;;;;18.00;14.00;;;;;11.50;93.99;100797.63;4867869;29;44885;-82
2023/12/06 04:50:26;;;;;;;;;14.00;11.67;;;;;11.65;92.54;100799.56;4868387;29;47017;-80
2023/12/06 04:52:51;;;;;;;;;15.33;13.67;;;;;11.39;93.22;100805.47;4867867;29;45047;-80
2023/12/06 04:55:17;;;;;;;;;16.67;13.00;;;;;11.39;92.72;100800.16;4885039;29;48118;-82
2023/12/06 04:57:42;;;;;;;;;13.67;13.67;;;;;11.27;94.54;100803.59;4883778;29;45009;-80
2023/12/06 05:00:09;;;;;;;;;17.00;17.00;;;;;11.38;95.06;100817.91;4884522;29;45162;-82
2023/12/06 05:02:34;;;;;;;;;11.33;8.00;;;;;11.34;95.20;100826.72;4867829;29;44843;-82
2023/12/06 05:05:01;;;;;;;;;18.00;18.00;;;;;11.38;95.01;100825.00;4884238;29;44803;-80
2023/12/06 05:07:27;;;;;;;;;18.00;15.00;;;;;11.32;95.38;100828.50;4885483;29;45187;-81
2023/12/06 05:09:52;;;;;;;;;17.33;16.33;;;;;11.32;95.01;100832.94;4867252;29;47246;-81
2023/12/06 05:12:17;;;;;;;;;15.67;15.00;;;;;11.32;95.33;100833.81;4851851;29;47863;-81
2023/12/06 05:14:45;;;;;;;;;17.00;15.00;;;;;11.51;95.20;100834.03;4865333;29;45296;-81
2023/12/06 05:17:11;;;;;;;;;18.33;16.67;;;;;11.11;95.86;100834.44;4865891;29;44861;-81
2023/12/06 05:19:36;;;;;;;;;15.00;13.00;;;;;11.11;96.70;100842.44;4865719;29;45461;-80
2023/12/06 05:22:02;;;;;;;;;17.33;16.33;;;;;11.03;96.18;100820.13;4849531;29;44801;-82
2023/12/06 05:24:27;;;;;;;;;16.33;16.33;;;;;11.11;97.13;100838.84;4849575;29;44899;-83
2023/12/06 05:26:53;;;;;;;;;13.33;13.00;;;;;11.17;97.43;100841.63;4849532;29;44822;-81
2023/12/06 05:29:18;;;;;;;;;13.67;13.67;;;;;11.16;96.34;100837.16;4865441;29;45223;-81
2023/12/06 05:31:43;;;;;;;;;14.33;11.67;;;;;11.24;97.20;100850.56;4865386;29;44739;-81
2023/12/06 05:34:09;;;;;;;;;12.67;11.67;;;;;11.25;96.21;100845.28;4848422;29;44979;-82
2023/12/06 05:36:34;;;;;;;;;21.00;17.00;;;;;11.27;96.52;100858.59;4848421;29;44886;-81
2023/12/06 05:39:00;;;;;;;;;18.67;17.00;;;;;11.40;96.69;100849.88;4864102;29;50978;-82
2023/12/06 05:41:26;;;;;;;;;18.33;13.00;;;;;11.29;97.02;100859.50;4863989;29;44915;-81
2023/12/06 05:43:57;;;;;;;;;16.33;16.33;;;;;11.61;97.24;100844.84;4848002;29;45035;-80
2023/12/06 05:46:22;;;;;;;;;13.67;13.67;;;;;11.30;96.52;100859.53;4865025;29;44866;-82
2023/12/06 05:48:48;;;;;;;;;14.67;12.00;;;;;11.32;95.75;100854.22;4864571;29;45416;-82
2023/12/06 05:51:13;;;;;;;;;14.67;14.67;;;;;11.35;96.55;100865.81;4848186;29;45378;-80
2023/12/06 05:53:39;;;;;;;;;12.33;12.33;;;;;11.32;95.68;100868.44;4849007;29;44810;-81
2023/12/06 05:56:09;;;;;;;;;15.00;14.33;;;;;11.55;96.96;100868.72;4849676;29;44914;-81
2023/12/06 05:58:36;;;;;;;;;17.67;16.67;;;;;11.34;95.22;100873.78;4848837;29;47124;-81
2023/12/06 06:01:02;;;;;;;;;17.67;16.33;;;;;11.30;95.71;100883.50;4849289;29;45223;-80
2023/12/06 06:03:27;;;;;;;;;14.67;14.67;;;;;11.32;96.30;100881.75;4849149;29;45256;-81
2023/12/06 06:05:53;;;;;;;;;17.67;15.67;;;;;11.21;94.02;100872.72;4865833;29;44956;-81
2023/12/06 06:08:18;;;;;;;;;14.67;14.00;;;;;11.23;95.07;100876.31;4848449;29;46694;-80
2023/12/06 06:10:43;;;;;;;;;12.00;12.00;;;;;11.20;96.53;100870.94;4855196;29;44750;-81
2023/12/06 06:13:09;;;;;;;;;13.33;13.33;;;;;11.10;92.70;100867.25;4870810;29;44722;-82
2023/12/06 06:15:36;;;;;;;;;9.33;9.00;;;;;11.19;94.11;100877.16;4870680;29;45344;-83
2023/12/06 06:18:05;;;;;;;;;17.33;14.00;;;;;10.98;95.79;100885.69;4886548;29;45817;-84
2023/12/06 06:20:31;;;;;;;;;15.00;12.00;;;;;10.82;94.44;100868.59;4870507;29;44852;-80
2023/12/06 06:22:56;;;;;;;;;17.67;12.67;;;;;10.85;96.25;100884.63;4887288;29;44912;-81
2023/12/06 06:25:21;;;;;;;;;13.00;12.00;;;;;10.84;96.34;100884.59;4870319;29;44790;-80
2023/12/06 06:27:47;;;;;;;;;17.00;14.00;;;;;10.83;96.81;100883.72;4870485;29;46621;-82
2023/12/06 06:30:13;;;;;;;;;13.00;13.00;;;;;10.79;96.31;100873.91;4871629;29;45014;-81
2023/12/06 06:32:45;;;;;;;;;16.33;14.33;;;;;11.19;97.06;100890.44;4872071;29;44780;-82
2023/12/06 06:35:10;;;;;;;;;15.00;13.67;;;;;10.90;97.36;100892.69;4872742;29;44809;-82
2023/12/06 06:37:36;;;;;;;;;12.33;11.00;;;;;10.85;95.29;100897.06;4872139;29;46797;-82
2023/12/06 06:40:07;;;;;;;;;11.67;11.67;;;;;10.84;96.75;100909.44;4871026;29;44760;-82
2023/12/06 06:42:33;;;;;;;;;16.00;13.33;;;;;10.79;97.29;100896.06;4871718;29;44788;-82
2023/12/06 06:44:58;;;;;;;;;16.33;16.33;;;;;10.86;97.26;100909.47;4888448;29;44811;-81
2023/12/06 06:47:27;;;;;;;;;17.00;14.67;;;;;10.91;97.77;100908.66;4871400;29;47136;-81
2023/12/06 06:49:53;;;;;;;;;20.00;17.00;;;;;10.90;97.49;100904.19;4870665;29;45329;-80
2023/12/06 06:52:19;;;;;;;;;13.00;13.00;;;;;10.91;97.42;100919.31;4886806;29;44782;-83
2023/12/06 07:07:48;;;;;;;;;17.00;15.33;;;;;10.75;97.79;100899.56;4885868;29;45488;-82
2023/12/06 07:10:23;;;;;;;;;15.00;15.00;;;;;10.95;97.83;100923.81;4882572;29;44871;-81
2023/12/06 07:12:49;;;;;;;;;15.67;14.33;;;;;10.72;97.70;100925.19;4881575;29;44968;-82
2023/12/06 07:17:51;;;;;;;;;19.67;17.33;;;;;10.92;97.83;100939.72;5407935;23;46253;-86
2023/12/06 07:22:54;;;;;;;;;12.67;12.00;;;;;10.78;97.85;100955.44;5333264;23;46558;-82
2023/12/06 10:59:45;;;;;;;;;24.67;23.33;;;;;11.91;94.51;101058.38;5612247;23;46306;-83
2023/12/06 12:06:27;;;;;;;;;9.00;7.33;;;;;12.63;89.59;101021.03;5885606;23;46846;31
2023/12/06 12:32:11;;;;;;;;;8.00;8.00;;;;;13.20;91.64;101019.75;5798447;23;46090;-82
2023/12/06 12:50:37;;;;;;;;;14.00;13.00;;;;;13.38;91.15;101027.91;5356003;23;46166;-84
2023/12/06 12:58:15;;;;;;;;;12.67;12.67;;;;;13.36;90.21;101002.97;5117708;23;45543;-83
2023/12/06 13:00:42;;;;;;;;;15.00;13.33;;;;;13.51;91.00;101020.91;5110389;23;46265;-82
2023/12/06 13:03:17;;;;;;;;;10.33;10.00;;;;;13.60;90.27;101017.38;4895744;29;44989;-83
2023/12/06 13:09:15;;;;;;;;;18.00;11.67;;;;;13.33;89.78;100970.91;4890965;29;45497;-83
2023/12/06 13:18:43;;;;;;;;;15.33;15.33;;;;;13.49;90.89;101003.97;4880378;29;45466;-82
2023/12/06 13:21:57;;;;;;;;;11.67;10.00;;;;;13.66;90.20;101022.75;4882405;29;45451;-84
2023/12/06 13:28:14;;;;;;;;;10.00;9.33;;;;;13.81;89.88;101016.59;4903710;29;45178;-82
2023/12/06 13:31:17;;;;;;;;;12.00;11.00;;;;;13.60;89.52;100975.50;4887830;29;44937;-81
2023/12/06 14:08:50;;;;;;;;;57.33;46.33;;;;;14.30;89.18;101021.25;4893314;28;44715;-81
2023/12/06 14:11:21;;;;;;;;;33.67;30.00;;;;;13.77;87.56;100986.28;4875547;29;46711;-82
2023/12/06 14:14:41;;;;;;;;;;;;;;;;;;;;;
2023/12/06 14:17:32;;;;;;;;;23.67;21.67;;;;;14.09;89.59;101003.34;4889276;29;68183;-82
2023/12/06 14:23:56;;;;;;;;;16.33;15.00;;;;;14.06;89.33;101006.94;4889360;29;45428;-82
2023/12/06 14:26:32;;;;;;;;;16.33;14.33;;;;;14.18;89.81;101024.81;4812227;29;45950;-81
2023/12/06 14:29:17;;;;;;;;;24.67;20.67;;;;;14.17;90.04;101029.25;4820053;29;44851;-80
2023/12/06 14:31:52;;;;;;;;;13.67;13.67;;;;;13.94;90.19;100986.38;4822877;29;44933;-81
2023/12/06 14:34:17;;;;;;;;;15.67;15.67;;;;;13.96;90.13;101032.72;4801874;29;45766;-80
2023/12/06 14:36:46;;;;;;;;;18.33;17.33;;;;;14.17;90.12;101023.88;4804319;29;44830;-81
2023/12/06 14:44:14;;;;;;;;;16.33;13.00;;;;;14.46;89.95;101033.81;4788127;29;44798;-80
2023/12/06 14:46:55;;;;;;;;;17.00;15.33;;;;;13.96;89.92;100997.97;4765422;29;46647;-81
2023/12/06 14:49:21;;;;;;;;;20.33;16.00;;;;;14.11;90.07;101017.63;4768465;29;44862;-82
2023/12/06 14:51:50;;;;;;;;;15.33;13.00;;;;;14.21;89.75;101006.97;4751717;29;44965;-81
2023/12/06 14:54:16;;;;;;;;;14.00;12.00;;;;;13.87;89.34;101005.03;4748900;29;45631;-82
2023/12/06 14:56:43;;;;;;;;;12.67;12.67;;;;;13.80;88.48;101009.47;4771700;29;47162;-82
2023/12/06 15:00:09;;;;;;;;;9.33;9.33;;;;;14.15;88.17;101023.00;4739810;29;44968;-83
2023/12/06 15:02:46;;;;;;;;;14.67;12.67;;;;;13.91;87.73;101010.41;4794821;29;44950;-82
2023/12/06 15:08:43;;;;;;;;;15.33;15.33;;;;;14.06;89.46;101048.78;4877455;29;45982;-80
2023/12/06 15:11:08;;;;;;;;;19.00;17.00;;;;;13.59;89.22;101036.97;4881727;29;44871;-81
2023/12/06 15:13:34;;;;;;;;;19.00;18.67;;;;;13.62;89.87;101042.34;4878720;29;45228;-82
2023/12/06 15:15:59;;;;;;;;;19.00;15.67;;;;;13.56;89.55;101043.19;4865006;29;45524;-83
2023/12/06 15:18:25;;;;;;;;;15.33;14.33;;;;;13.55;89.74;101051.19;4875060;29;47083;-81
2023/12/06 15:20:59;;;;;;;;;17.33;12.33;;;;;13.47;89.66;101055.59;4873733;29;44815;-81
2023/12/06 15:23:24;;;;;;;;;14.67;11.67;;;;;13.27;89.68;101032.28;4873134;29;44961;-81
2023/12/06 15:25:54;;;;;;;;;16.00;16.00;;;;;13.32;89.90;101019.88;4995827;23;45596;-82
2023/12/06 15:28:21;;;;;;;;;17.00;17.00;;;;;13.15;90.16;101019.72;4890578;29;45562;-81
2023/12/06 15:30:47;;;;;;;;;19.33;18.33;;;;;13.12;90.33;101048.16;5466870;23;46336;-82
2023/12/06 15:33:12;;;;;;;;;21.33;21.33;;;;;13.09;90.20;101057.03;4870075;28;45388;-81
2023/12/06 15:35:38;;;;;;;;;26.33;24.33;;;;;12.94;90.06;101051.56;4861058;29;45528;-82
2023/12/06 15:38:04;;;;;;;;;24.00;21.00;;;;;12.93;90.55;101060.47;4850369;29;46444;-81
2023/12/06 15:40:29;;;;;;;;;24.33;24.33;;;;;12.88;90.37;101071.06;4844293;29;45502;-81
2023/12/06 15:42:55;;;;;;;;;20.67;19.67;;;;;12.71;90.39;101054.91;4848863;29;45365;-82
2023/12/06 15:45:22;;;;;;;;;15.33;12.00;;;;;12.77;90.91;101059.41;4846189;29;45495;-81
2023/12/06 15:47:48;;;;;;;;;28.33;26.00;;;;;12.58;91.07;101047.63;4833055;29;48233;-81
2023/12/06 15:50:14;;;;;;;;;26.00;24.67;;;;;12.54;91.25;101049.41;4849993;29;45387;-82
2023/12/06 15:52:43;;;;;;;;;22.33;22.33;;;;;12.56;91.17;101070.72;4846965;29;44957;-83
2023/12/06 15:55:09;;;;;;;;;29.67;27.33;;;;;12.67;91.75;101060.19;4857974;29;44979;-83
2023/12/06 15:57:38;;;;;;;;;28.67;28.67;;;;;12.50;91.55;101076.91;4860159;28;47381;-82
2023/12/06 16:05:14;;;;;;;;;29.67;28.67;;;;;12.15;91.96;101052.47;5452180;23;46176;-80
2023/12/06 16:07:40;;;;;;;;;37.00;35.00;;;;;12.28;92.22;101083.75;4892265;28;47948;-80
2023/12/06 16:10:08;;;;;;;;;32.00;26.33;;;;;12.31;92.41;101085.56;4893629;29;45771;-80
2023/12/06 16:12:40;;;;;;;;;37.67;34.67;;;;;12.19;92.75;101080.97;4889010;29;45421;-80
2023/12/06 16:15:07;;;;;;;;;41.00;35.33;;;;;12.09;92.79;101066.63;4904277;29;45463;-81
2023/12/06 16:17:37;;;;;;;;;44.67;37.67;;;;;12.19;92.67;101094.31;4906730;29;46286;-82
2023/12/06 16:20:08;;;;;;;;;42.67;38.33;;;;;12.28;93.27;101077.50;4886227;29;45593;-82
2023/12/06 16:22:33;;;;;;;;;40.33;36.00;;;;;12.04;93.33;101087.00;4907369;28;45450;-82
2023/12/06 16:24:59;;;;;;;;;50.33;41.00;;;;;11.98;93.10;101082.47;4914550;28;45557;-82
2023/12/06 16:27:26;;;;;;;;;40.67;36.33;;;;;12.04;93.31;101088.75;4925819;28;46200;-82
2023/12/06 16:29:52;;;;;;;;;38.00;36.00;;;;;11.95;92.67;101087.75;4899754;29;45801;-82
2023/12/06 16:32:18;;;;;;;;;49.33;42.33;;;;;11.92;93.43;101092.16;4887291;29;45842;-80
2023/12/06 16:34:46;;;;;;;;;40.33;37.00;;;;;11.88;92.96;101090.31;4888830;28;45544;-81
2023/12/06 16:37:12;;;;;;;;;42.33;38.33;;;;;11.85;93.30;101090.25;4907326;28;46373;-82
2023/12/06 16:39:38;;;;;;;;;45.00;39.00;;;;;12.07;93.26;101089.69;4890720;29;45424;-81
2023/12/06 16:42:04;;;;;;;;;32.67;32.67;;;;;11.82;93.33;101097.31;4907261;29;45365;-82
2023/12/06 16:44:29;;;;;;;;;43.33;39.33;;;;;11.86;93.37;101105.38;4889233;29;45399;-82
2023/12/06 16:46:54;;;;;;;;;43.33;36.67;;;;;11.85;93.71;101100.91;4890785;29;46668;-82
2023/12/06 16:49:20;;;;;;;;;45.00;41.00;;;;;11.84;93.54;101104.44;4889554;29;45184;-81
2023/12/06 16:51:47;;;;;;;;;48.00;41.75;;;;;11.91;93.95;101106.34;4894922;29;45537;-80
2023/12/06 16:54:12;;;;;;;;;47.00;42.33;;;;;11.82;93.90;101110.66;4891425;29;44913;-79
2023/12/06 16:56:38;;;;;;;;;47.67;40.67;;;;;11.82;93.78;101102.66;4910164;29;45390;-81
2023/12/06 16:59:06;;;;;;;;;54.75;45.75;;;;;12.00;93.86;101107.38;4876594;29;45408;-81
2023/12/06 17:01:35;;;;;;;;;43.67;36.67;;;;;12.01;93.48;101108.28;4890887;29;45496;-80
2023/12/06 17:04:02;;;;;;;;;54.25;44.00;;;;;11.76;93.94;101107.88;4905853;29;45517;-80
2023/12/06 17:06:28;;;;;;;;;56.25;45.50;;;;;11.74;93.66;101108.75;4887959;28;47390;-80
2023/12/06 17:08:55;;;;;;;;;63.75;50.00;;;;;11.74;93.83;101119.41;4907090;29;44787;-80
2023/12/06 17:11:22;;;;;;;;;73.25;60.25;;;;;11.70;93.86;101114.91;4890508;29;44968;-81
2023/12/06 17:13:48;;;;;;;;;69.50;58.25;;;;;11.70;93.97;101117.56;4907146;29;45400;-80
2023/12/06 17:16:19;;;;;;;;;68.25;55.00;;;;;11.74;93.91;101090.97;4910604;29;45504;-82
2023/12/06 17:26:35;;;;;;;;;51.50;43.50;;;;;11.58;92.75;101092.50;5298548;23;46938;-82
2023/12/06 17:29:01;;;;;;;;;51.00;43.00;;;;;11.59;90.17;101136.94;4916719;29;44870;-83
2023/12/06 17:36:37;;;;;;;;;43.00;37.00;;;;;11.33;89.69;101130.25;5315448;23;46085;-81
2023/12/06 23:30:09;;;;;;;;;52.33;43.00;;;;;9.67;94.82;101196.78;5808830;23;46725;-81
